Time;durP1;ratioP1;P1;durP2;ratioP2;P2;SDS_P1;SDS_P2;PMS_P1;PMS_P2;Temp;Humidity;BMP_temperature;BMP_pressure;BME280_temperature;BME280_humidity;BME280_pressure;Samples;Min_cycle;Max_cycle;Signal;HPM_P1;HPM_P2
2023/10/14 00:00:37;;;;;;;6.15;2.58;;;;;;;;;;5084064;28;20032;-83
2023/10/14 00:03:18;;;;;;;6.55;2.53;;;;;;;;;;5072470;28;20492;-83
2023/10/14 00:05:43;;;;;;;7.18;2.60;;;;;;;;;;5048508;28;20098;-83
2023/10/14 00:08:12;;;;;;;9.68;2.10;;;;;;;;;;5074364;28;20115;-83
2023/10/14 00:10:38;;;;;;;8.20;2.38;;;;;;;;;;5080288;28;20522;-83
2023/10/14 00:13:04;;;;;;;8.05;2.58;;;;;;;;;;5065407;28;20031;-84
2023/10/14 00:15:34;;;;;;;5.80;2.33;;;;;;;;;;5065378;28;20032;-83
2023/10/14 00:17:59;;;;;;;7.20;2.67;;;;;;;;;;5076974;28;20071;-82
2023/10/14 00:20:25;;;;;;;8.23;2.53;;;;;;;;;;5078782;28;20036;-82
2023/10/14 00:22:50;;;;;;;6.47;2.35;;;;;;;;;;5078088;28;20032;-83
2023/10/14 00:25:19;;;;;;;6.13;1.88;;;;;;;;;;5082221;28;20029;-83
2023/10/14 00:27:44;;;;;;;9.07;2.20;;;;;;;;;;5077627;28;20064;-83
2023/10/14 00:30:11;;;;;;;6.82;2.42;;;;;;;;;;5082682;28;20498;-83
2023/10/14 00:32:36;;;;;;;8.63;2.35;;;;;;;;;;5078572;28;20484;-83
2023/10/14 00:35:03;;;;;;;6.15;2.40;;;;;;;;;;5064047;28;20072;-83
2023/10/14 00:37:32;;;;;;;8.90;2.35;;;;;;;;;;5057738;28;20088;-83
2023/10/14 00:40:10;;;;;;;10.48;2.47;;;;;;;;;;5086872;28;20111;-84
2023/10/14 00:42:36;;;;;;;10.20;2.45;;;;;;;;;;5085198;28;20028;-83
2023/10/14 00:45:01;;;;;;;8.88;2.20;;;;;;;;;;5080609;28;20115;-84
2023/10/14 00:47:26;;;;;;;7.35;2.35;;;;;;;;;;5076029;28;20056;-84
2023/10/14 00:49:55;;;;;;;5.63;2.42;;;;;;;;;;5081845;28;20020;-83
2023/10/14 00:52:21;;;;;;;6.38;2.30;;;;;;;;;;5051461;28;20492;-84
2023/10/14 00:54:58;;;;;;;8.93;2.50;;;;;;;;;;5066147;28;20028;-85
2023/10/14 00:57:24;;;;;;;7.35;2.22;;;;;;;;;;5057846;28;20028;-86
2023/10/14 00:59:50;;;;;;;7.03;2.45;;;;;;;;;;5079246;28;20037;-83
2023/10/14 01:02:26;;;;;;;5.30;1.88;;;;;;;;;;5078180;28;20031;-84
2023/10/14 01:04:53;;;;;;;7.85;2.65;;;;;;;;;;5061739;28;20484;-84
2023/10/14 01:07:21;;;;;;;8.13;2.03;;;;;;;;;;5052338;28;20431;-82
2023/10/14 01:12:16;;;;;;;7.15;2.22;;;;;;;;;;5055988;28;20069;-83
2023/10/14 01:14:54;;;;;;;4.00;2.13;;;;;;;;;;5075464;28;20020;-80
2023/10/14 01:17:28;;;;;;;7.57;2.30;;;;;;;;;;5061967;28;20035;-82
2023/10/14 01:19:54;;;;;;;7.50;2.58;;;;;;;;;;5052982;28;20404;-82
2023/10/14 01:22:19;;;;;;;5.55;2.85;;;;;;;;;;5058489;28;20138;-82
2023/10/14 01:24:44;;;;;;;8.93;2.22;;;;;;;;;;5082799;28;20056;-83
2023/10/14 01:27:11;;;;;;;6.30;2.30;;;;;;;;;;5039839;28;20028;-82
2023/10/14 01:29:40;;;;;;;9.63;2.88;;;;;;;;;;5057158;28;20492;-82
2023/10/14 01:32:37;;;;;;;5.63;2.33;;;;;;;;;;5054273;28;20043;-83
2023/10/14 01:35:26;;;;;;;7.78;1.95;;;;;;;;;;5057248;28;20428;-82
2023/10/14 01:37:52;;;;;;;6.72;2.40;;;;;;;;;;5048025;28;20115;-82
2023/10/14 01:40:27;;;;;;;7.30;2.90;;;;;;;;;;5058729;28;20101;-83
2023/10/14 01:43:05;;;;;;;6.82;2.38;;;;;;;;;;5071474;28;20028;-83
2023/10/14 01:45:31;;;;;;;7.07;2.25;;;;;;;;;;5057826;28;20040;-82
2023/10/14 01:48:12;;;;;;;7.05;1.98;;;;;;;;;;5078572;28;20036;-82
2023/10/14 01:50:38;;;;;;;9.23;1.90;;;;;;;;;;5077267;28;20488;-82
2023/10/14 01:53:10;;;;;;;7.40;2.60;;;;;;;;;;5081663;28;20060;-82
2023/10/14 01:55:35;;;;;;;;;;;;;;;;;;5073579;28;20403;-82
2023/10/14 01:58:02;;;;;;;6.97;2.40;;;;;;;;;;5075848;28;19908;-82
2023/10/14 02:00:35;;;;;;;6.28;2.10;;;;;;;;;;5057865;28;20704;-83
2023/10/14 02:03:05;;;;;;;9.32;2.80;;;;;;;;;;5080063;28;20039;-82
2023/10/14 02:05:34;;;;;;;;;;;;;;;;;;5058837;28;20030;-82
2023/10/14 02:07:59;;;;;;;6.22;2.78;;;;;;;;;;5057076;28;19913;-83
2023/10/14 02:10:24;;;;;;;5.82;2.20;;;;;;;;;;5073614;28;20059;-83
2023/10/14 02:12:50;;;;;;;6.40;2.05;;;;;;;;;;5056483;28;20024;-83
2023/10/14 02:15:15;;;;;;;9.13;2.73;;;;;;;;;;5058872;28;20027;-83
2023/10/14 02:17:40;;;;;;;7.07;2.78;;;;;;;;;;5040736;28;20037;-83
2023/10/14 02:20:20;;;;;;;6.60;2.30;;;;;;;;;;5063024;28;20108;-83
2023/10/14 02:22:45;;;;;;;6.43;2.60;;;;;;;;;;5072117;28;20271;-83
2023/10/14 02:25:15;;;;;;;8.45;2.42;;;;;;;;;;5056829;28;20123;-83
2023/10/14 02:27:42;;;;;;;8.35;3.13;;;;;;;;;;5065800;28;20124;-83
2023/10/14 02:30:08;;;;;;;6.63;2.65;;;;;;;;;;5078523;28;20513;-82
2023/10/14 02:32:34;;;;;;;8.35;2.72;;;;;;;;;;5074125;28;20074;-83
2023/10/14 02:35:00;;;;;;;6.82;2.60;;;;;;;;;;5060101;28;20515;-83
2023/10/14 02:37:26;;;;;;;5.47;2.30;;;;;;;;;;5054585;28;20025;-83
2023/10/14 02:39:52;;;;;;;6.47;2.80;;;;;;;;;;5075434;28;20054;-83
2023/10/14 02:42:18;;;;;;;6.57;2.60;;;;;;;;;;5041276;28;20055;-83
2023/10/14 02:44:44;;;;;;;7.27;2.60;;;;;;;;;;5057877;28;20054;-83
2023/10/14 02:47:09;;;;;;;6.85;2.60;;;;;;;;;;5077000;28;20703;-83
2023/10/14 02:49:37;;;;;;;8.55;2.80;;;;;;;;;;5075511;28;20404;-83
2023/10/14 02:52:08;;;;;;;6.93;2.53;;;;;;;;;;5055721;28;20032;-82
2023/10/14 02:54:33;;;;;;;8.98;2.83;;;;;;;;;;5076937;28;20500;-83
2023/10/14 02:57:00;;;;;;;5.18;2.72;;;;;;;;;;5082244;28;20032;-83
2023/10/14 03:02:14;;;;;;;6.47;3.33;;;;;;;;;;5081146;28;20043;-83
2023/10/14 03:04:55;;;;;;;7.82;2.95;;;;;;;;;;5078216;28;20083;-83
2023/10/14 03:07:27;;;;;;;9.10;3.10;;;;;;;;;;5076140;28;21632;-83
2023/10/14 03:09:54;;;;;;;8.38;2.75;;;;;;;;;;5060225;28;20078;-83
2023/10/14 03:12:19;;;;;;;7.95;3.10;;;;;;;;;;5062545;28;20029;-83
2023/10/14 03:14:48;;;;;;;10.50;3.10;;;;;;;;;;5083815;28;20024;-83
2023/10/14 03:17:39;;;;;;;11.90;3.50;;;;;;;;;;5079918;28;20510;-83
2023/10/14 03:22:50;;;;;;;7.10;3.00;;;;;;;;;;5076575;28;20446;-83
2023/10/14 03:25:23;;;;;;;7.90;3.13;;;;;;;;;;5070943;28;20045;-83
2023/10/14 03:27:48;;;;;;;7.50;2.72;;;;;;;;;;5083116;28;20576;-83
2023/10/14 03:30:15;;;;;;;5.25;2.85;;;;;;;;;;5083491;28;20071;-83
2023/10/14 03:32:42;;;;;;;8.48;3.10;;;;;;;;;;5075314;28;20039;-83
2023/10/14 03:35:11;;;;;;;7.38;3.55;;;;;;;;;;5078145;28;20032;-83
2023/10/14 03:37:40;;;;;;;8.07;3.15;;;;;;;;;;5060180;28;20064;-83
2023/10/14 03:42:54;;;;;;;5.78;2.38;;;;;;;;;;5080849;28;20031;-83
2023/10/14 03:45:28;;;;;;;6.28;2.95;;;;;;;;;;5078905;28;20096;-82
2023/10/14 03:47:59;;;;;;;11.63;3.42;;;;;;;;;;5072848;28;20032;-83
2023/10/14 03:50:24;;;;;;;9.77;3.20;;;;;;;;;;5060143;28;20032;-83
2023/10/14 03:52:51;;;;;;;5.97;2.77;;;;;;;;;;5080580;28;20047;-83
2023/10/14 03:55:22;;;;;;;11.88;4.00;;;;;;;;;;5080991;28;20082;-83
2023/10/14 03:57:50;;;;;;;7.75;3.00;;;;;;;;;;5084551;28;20454;-82
2023/10/14 04:00:24;;;;;;;7.47;3.22;;;;;;;;;;5075667;28;20040;-83
2023/10/14 04:02:50;;;;;;;10.48;2.92;;;;;;;;;;5070115;28;20040;-83
2023/10/14 04:05:18;;;;;;;8.30;3.10;;;;;;;;;;5078162;28;20028;-83
2023/10/14 04:07:44;;;;;;;5.75;2.53;;;;;;;;;;5080355;28;20716;-83
2023/10/14 04:10:09;;;;;;;7.03;2.90;;;;;;;;;;5064642;28;20024;-83
2023/10/14 04:17:38;;;;;;;9.73;2.90;;;;;;;;;;5079340;28;20032;-82
2023/10/14 04:35:25;;;;;;;10.50;3.13;;;;;;;;;;5078734;28;20396;-83
2023/10/14 04:37:54;;;;;;;9.18;3.75;;;;;;;;;;5078689;28;20092;-83
2023/10/14 04:43:02;;;;;;;13.02;3.22;;;;;;;;;;5073142;28;20640;-83
2023/10/14 04:45:31;;;;;;;9.63;3.13;;;;;;;;;;5058511;28;20040;-83
2023/10/14 04:47:57;;;;;;;9.48;3.28;;;;;;;;;;5044888;28;20040;-83
2023/10/14 04:50:23;;;;;;;6.57;2.88;;;;;;;;;;5079196;28;20028;-83
2023/10/14 04:52:48;;;;;;;10.73;3.28;;;;;;;;;;5083327;28;20043;-83
2023/10/14 04:55:28;;;;;;;9.27;2.75;;;;;;;;;;5079013;28;20469;-83
2023/10/14 04:58:11;;;;;;;6.88;3.00;;;;;;;;;;5073590;28;20572;-83
2023/10/14 05:00:44;;;;;;;10.65;2.95;;;;;;;;;;5058883;28;20043;-83
2023/10/14 05:03:12;;;;;;;7.28;2.63;;;;;;;;;;5076742;28;20035;-83
2023/10/14 05:05:38;;;;;;;8.52;3.58;;;;;;;;;;5080469;28;20028;-83
2023/10/14 05:08:04;;;;;;;8.80;3.80;;;;;;;;;;5082419;28;20046;-83
2023/10/14 05:10:29;;;;;;;7.07;3.20;;;;;;;;;;5075902;28;20031;-83
2023/10/14 05:12:55;;;;;;;7.15;3.22;;;;;;;;;;5079090;28;20036;-83
2023/10/14 05:15:21;;;;;;;6.53;2.83;;;;;;;;;;5078178;28;20055;-83
2023/10/14 05:17:50;;;;;;;7.93;3.30;;;;;;;;;;5080244;28;20093;-83
2023/10/14 05:23:06;;;;;;;7.53;3.00;;;;;;;;;;5045619;28;20044;-83
2023/10/14 05:25:32;;;;;;;6.77;3.10;;;;;;;;;;5074787;28;20034;-83
2023/10/14 05:27:58;;;;;;;8.88;3.55;;;;;;;;;;5077504;28;20305;-83
2023/10/14 05:30:24;;;;;;;6.57;3.05;;;;;;;;;;5041263;28;20102;-83
2023/10/14 05:32:51;;;;;;;10.88;4.07;;;;;;;;;;5080627;28;20025;-83
2023/10/14 05:35:16;;;;;;;7.75;3.45;;;;;;;;;;5080757;28;20040;-83
2023/10/14 05:37:41;;;;;;;7.55;3.10;;;;;;;;;;5075574;28;20895;-83
2023/10/14 05:40:13;;;;;;;7.20;3.00;;;;;;;;;;5062478;28;20029;-83
2023/10/14 05:42:39;;;;;;;9.45;3.30;;;;;;;;;;5075963;28;20446;-83
2023/10/14 05:45:04;;;;;;;9.57;2.97;;;;;;;;;;5060956;28;20028;-83
2023/10/14 05:47:29;;;;;;;7.60;3.45;;;;;;;;;;5053093;28;20512;-83
2023/10/14 05:49:55;;;;;;;6.95;3.55;;;;;;;;;;5058079;28;20030;-82
2023/10/14 05:52:24;;;;;;;8.65;3.70;;;;;;;;;;5074262;28;20100;-83
2023/10/14 05:54:50;;;;;;;6.30;2.90;;;;;;;;;;5075448;28;20058;-83
2023/10/14 05:57:18;;;;;;;7.50;3.42;;;;;;;;;;5059577;28;20082;-82
2023/10/14 05:59:43;;;;;;;8.68;3.30;;;;;;;;;;5079031;28;20105;-83
2023/10/14 06:02:12;;;;;;;9.10;3.10;;;;;;;;;;5081705;28;20032;-83
2023/10/14 06:04:40;;;;;;;10.73;3.92;;;;;;;;;;5076015;28;20469;-83
2023/10/14 06:07:07;;;;;;;9.20;3.22;;;;;;;;;;5074640;28;20047;-83
2023/10/14 06:09:32;;;;;;;8.35;3.50;;;;;;;;;;5075049;28;20028;-83
2023/10/14 06:11:57;;;;;;;8.85;3.50;;;;;;;;;;5059519;28;20070;-83
2023/10/14 06:14:25;;;;;;;7.65;3.22;;;;;;;;;;5059894;28;20032;-83
2023/10/14 06:16:50;;;;;;;10.50;2.90;;;;;;;;;;5060676;28;20024;-83
2023/10/14 06:19:17;;;;;;;7.07;3.33;;;;;;;;;;5074044;28;20039;-83
2023/10/14 06:21:44;;;;;;;7.93;3.58;;;;;;;;;;5074196;28;20032;-83
2023/10/14 06:24:10;;;;;;;16.73;4.82;;;;;;;;;;5077312;28;20523;-82
2023/10/14 06:26:36;;;;;;;19.95;4.47;;;;;;;;;;5072735;28;20021;-77
2023/10/14 06:29:01;;;;;;;8.05;2.72;;;;;;;;;;5077078;28;20036;-77
2023/10/14 06:31:26;;;;;;;7.25;2.60;;;;;;;;;;5079252;28;20028;-77
2023/10/14 06:33:54;;;;;;;7.25;1.67;;;;;;;;;;5068418;28;20112;-76
2023/10/14 06:36:20;;;;;;;3.30;1.55;;;;;;;;;;5077422;28;20144;-77
2023/10/14 06:38:45;;;;;;;3.40;1.10;;;;;;;;;;5076147;28;20131;-76
2023/10/14 06:41:11;;;;;;;3.75;1.33;;;;;;;;;;5079248;28;20035;-76
2023/10/14 06:43:37;;;;;;;3.83;1.02;;;;;;;;;;5078908;28;20491;-77
2023/10/14 06:46:04;;;;;;;7.28;1.42;;;;;;;;;;5075542;28;20028;-77
2023/10/14 06:48:30;;;;;;;4.80;1.13;;;;;;;;;;5072879;28;20036;-76
2023/10/14 06:50:55;;;;;;;2.72;0.75;;;;;;;;;;5075440;28;20033;-76
2023/10/14 06:53:20;;;;;;;3.20;0.88;;;;;;;;;;5076068;28;20039;-76
2023/10/14 06:55:45;;;;;;;2.33;1.02;;;;;;;;;;5078255;28;20040;-76
2023/10/14 06:58:11;;;;;;;4.38;0.85;;;;;;;;;;5079405;28;20032;-76
2023/10/14 07:00:37;;;;;;;5.55;1.05;;;;;;;;;;5071887;28;20103;-76
2023/10/14 07:03:03;;;;;;;1.90;0.70;;;;;;;;;;5076928;28;20029;-76
2023/10/14 07:05:28;;;;;;;4.70;0.93;;;;;;;;;;5074526;28;20115;-76
2023/10/14 07:07:55;;;;;;;5.05;0.98;;;;;;;;;;5077552;28;20093;-76
2023/10/14 07:10:27;;;;;;;2.00;1.00;;;;;;;;;;5077951;28;20515;-76
2023/10/14 07:12:53;;;;;;;5.57;1.63;;;;;;;;;;5076667;28;20397;-76
2023/10/14 07:15:19;;;;;;;7.72;1.42;;;;;;;;;;5072470;28;20032;-76
2023/10/14 07:17:48;;;;;;;4.25;1.35;;;;;;;;;;5073108;28;20032;-76
2023/10/14 07:20:14;;;;;;;8.13;2.00;;;;;;;;;;5073150;28;20039;-76
2023/10/14 07:22:42;;;;;;;5.28;1.90;;;;;;;;;;5076372;28;20028;-76
2023/10/14 07:25:10;;;;;;;4.55;1.45;;;;;;;;;;5062091;28;20028;-76
2023/10/14 07:27:37;;;;;;;3.33;0.77;;;;;;;;;;5061921;28;20506;-77
2023/10/14 07:30:13;;;;;;;4.03;1.02;;;;;;;;;;5075138;28;20530;-76
2023/10/14 07:32:38;;;;;;;2.70;1.17;;;;;;;;;;5074088;28;20370;-76
2023/10/14 07:35:05;;;;;;;4.35;1.58;;;;;;;;;;5074291;28;20028;-76
2023/10/14 07:37:30;;;;;;;4.72;0.98;;;;;;;;;;5056703;28;20055;-76
2023/10/14 07:39:55;;;;;;;1.95;0.90;;;;;;;;;;5081123;28;20035;-76
2023/10/14 07:42:21;;;;;;;2.00;0.80;;;;;;;;;;5139105;22;20054;-81
2023/10/14 07:44:46;;;;;;;2.50;1.02;;;;;;;;;;5088964;28;20273;-80
2023/10/14 07:47:12;;;;;;;3.17;1.10;;;;;;;;;;5067044;28;20072;-80
2023/10/14 07:49:38;;;;;;;4.72;1.45;;;;;;;;;;5088813;28;20036;-80
2023/10/14 07:52:06;;;;;;;5.90;0.82;;;;;;;;;;5085155;28;20113;-80
2023/10/14 07:54:31;;;;;;;2.63;0.90;;;;;;;;;;5081613;28;20046;-80
2023/10/14 07:56:57;;;;;;;3.08;1.15;;;;;;;;;;5078048;28;20492;-80
2023/10/14 07:59:22;;;;;;;2.13;0.68;;;;;;;;;;5098743;28;20035;-80
2023/10/14 08:01:47;;;;;;;2.72;0.90;;;;;;;;;;5099972;28;20531;-80
2023/10/14 08:04:14;;;;;;;3.13;0.60;;;;;;;;;;5102842;28;20024;-80
2023/10/14 08:06:40;;;;;;;4.40;0.80;;;;;;;;;;5098791;28;20754;-80
2023/10/14 08:09:05;;;;;;;5.70;1.13;;;;;;;;;;5081530;28;20036;-80
2023/10/14 08:11:37;;;;;;;2.97;0.70;;;;;;;;;;5100012;28;20035;-80
2023/10/14 08:14:06;;;;;;;1.90;0.60;;;;;;;;;;5081860;28;20032;-80
2023/10/14 08:16:31;;;;;;;4.38;0.60;;;;;;;;;;5099677;28;20024;-80
2023/10/14 08:18:56;;;;;;;1.90;0.90;;;;;;;;;;5083943;28;20446;-80
2023/10/14 08:21:21;;;;;;;1.83;0.50;;;;;;;;;;5068343;28;20613;-80
2023/10/14 08:23:46;;;;;;;2.95;0.80;;;;;;;;;;5099159;28;20327;-80
2023/10/14 08:26:15;;;;;;;2.23;0.50;;;;;;;;;;5098096;28;20040;-80
2023/10/14 08:28:40;;;;;;;4.63;0.77;;;;;;;;;;5098377;28;20774;-80
2023/10/14 08:31:08;;;;;;;1.45;0.40;;;;;;;;;;5101997;28;20076;-79
2023/10/14 08:33:33;;;;;;;3.33;0.52;;;;;;;;;;5098774;28;20102;-80
2023/10/14 08:35:58;;;;;;;3.55;0.50;;;;;;;;;;5106023;28;20504;-80
2023/10/14 08:38:27;;;;;;;2.07;0.63;;;;;;;;;;5078319;28;20028;-80
2023/10/14 08:40:55;;;;;;;2.45;0.40;;;;;;;;;;5093555;28;20335;-79
2023/10/14 08:43:21;;;;;;;3.60;0.75;;;;;;;;;;5080590;28;20208;-80
2023/10/14 08:45:51;;;;;;;2.47;0.70;;;;;;;;;;5082767;28;20032;-79
2023/10/14 08:48:16;;;;;;;1.42;0.50;;;;;;;;;;5068784;28;20038;-80
2023/10/14 08:50:42;;;;;;;2.25;0.40;;;;;;;;;;5102432;28;20111;-80
2023/10/14 08:53:09;;;;;;;4.03;1.40;;;;;;;;;;5096077;28;20488;-79
2023/10/14 08:55:36;;;;;;;3.45;0.70;;;;;;;;;;5097883;28;20470;-79
2023/10/14 08:58:02;;;;;;;2.45;0.50;;;;;;;;;;5082617;28;20027;-79
2023/10/14 09:00:29;;;;;;;4.45;0.77;;;;;;;;;;5097210;28;20086;-79
2023/10/14 09:02:54;;;;;;;2.35;0.65;;;;;;;;;;5070406;28;20073;-79
2023/10/14 09:05:20;;;;;;;4.15;0.93;;;;;;;;;;5077615;28;20449;-79
2023/10/14 09:07:48;;;;;;;2.90;0.70;;;;;;;;;;5076206;28;20020;-79
2023/10/14 09:10:16;;;;;;;1.75;0.45;;;;;;;;;;5065070;28;20037;-79
2023/10/14 09:12:52;;;;;;;3.28;0.85;;;;;;;;;;5059621;28;20026;-79
2023/10/14 09:15:20;;;;;;;2.50;0.93;;;;;;;;;;5097001;28;20205;-79
2023/10/14 09:17:46;;;;;;;3.08;0.73;;;;;;;;;;5103200;28;20057;-79
2023/10/14 09:20:26;;;;;;;6.05;1.40;;;;;;;;;;5087919;28;20024;-79
2023/10/14 09:22:51;;;;;;;5.78;0.90;;;;;;;;;;5086582;28;20036;-79
2023/10/14 09:25:17;;;;;;;4.88;1.00;;;;;;;;;;5093282;28;20034;-79
2023/10/14 09:27:45;;;;;;;4.72;1.02;;;;;;;;;;5096556;28;20027;-79
2023/10/14 09:30:18;;;;;;;4.25;1.00;;;;;;;;;;5097799;28;20027;-79
2023/10/14 09:32:43;;;;;;;6.45;0.95;;;;;;;;;;5071704;28;20032;-79
2023/10/14 09:35:08;;;;;;;6.05;1.58;;;;;;;;;;5091608;28;20027;-79
2023/10/14 09:37:33;;;;;;;3.38;1.02;;;;;;;;;;5071771;28;20035;-79
2023/10/14 09:40:01;;;;;;;6.73;1.20;;;;;;;;;;5075769;28;20419;-79
2023/10/14 09:42:26;;;;;;;3.85;0.95;;;;;;;;;;5077746;28;20361;-79
2023/10/14 09:44:52;;;;;;;5.60;0.90;;;;;;;;;;5102313;28;20549;-79
2023/10/14 09:47:21;;;;;;;4.97;1.00;;;;;;;;;;5090440;28;20130;-79
2023/10/14 09:49:47;;;;;;;4.18;0.95;;;;;;;;;;5070637;28;20024;-79
2023/10/14 09:52:14;;;;;;;5.03;1.25;;;;;;;;;;5092067;28;20483;-79
2023/10/14 09:54:40;;;;;;;4.40;1.15;;;;;;;;;;5091544;28;20034;-79
2023/10/14 09:57:10;;;;;;;7.10;1.45;;;;;;;;;;5100506;28;20024;-79
2023/10/14 09:59:37;;;;;;;7.13;1.63;;;;;;;;;;5093499;28;20025;-78
2023/10/14 10:02:02;;;;;;;6.53;1.48;;;;;;;;;;5086393;28;20514;-78
2023/10/14 10:04:31;;;;;;;4.72;1.08;;;;;;;;;;5085853;28;20056;-76
2023/10/14 10:07:16;;;;;;;3.47;1.02;;;;;;;;;;5093798;28;20031;-77
2023/10/14 10:10:10;;;;;;;6.32;1.25;;;;;;;;;;5065346;28;20399;-78
2023/10/14 10:12:36;;;;;;;5.90;1.52;;;;;;;;;;5095024;28;20109;-78
2023/10/14 10:15:01;;;;;;;8.13;1.92;;;;;;;;;;5089100;28;20055;-77
2023/10/14 10:17:27;;;;;;;8.02;2.13;;;;;;;;;;5085654;28;20028;-77
2023/10/14 10:20:25;;;;;;;8.43;1.42;;;;;;;;;;5073664;28;20051;-76
2023/10/14 10:22:51;;;;;;;7.22;1.30;;;;;;;;;;5096117;28;20107;-76
2023/10/14 10:25:17;;;;;;;7.07;1.45;;;;;;;;;;5098609;28;20031;-77
2023/10/14 10:27:43;;;;;;;4.45;1.27;;;;;;;;;;5096428;28;20509;-78
2023/10/14 10:30:12;;;;;;;9.00;1.25;;;;;;;;;;5069081;28;20024;-78
2023/10/14 10:32:38;;;;;;;9.55;1.38;;;;;;;;;;5088863;28;20028;-78
2023/10/14 10:35:06;;;;;;;6.28;1.30;;;;;;;;;;5074465;28;20057;-78
2023/10/14 10:37:47;;;;;;;7.03;1.50;;;;;;;;;;5083878;28;20023;-78
2023/10/14 10:40:12;;;;;;;8.23;1.60;;;;;;;;;;5096992;28;20030;-77
2023/10/14 10:42:41;;;;;;;6.78;1.15;;;;;;;;;;5090749;28;20080;-78
2023/10/14 10:45:20;;;;;;;7.10;1.80;;;;;;;;;;5092309;28;20494;-78
2023/10/14 10:47:54;;;;;;;11.80;2.10;;;;;;;;;;5072927;28;20052;-78
2023/10/14 10:50:27;;;;;;;9.02;1.73;;;;;;;;;;5046957;28;20017;-79
2023/10/14 10:52:54;;;;;;;10.93;2.10;;;;;;;;;;5081944;28;20096;-79
2023/10/14 10:55:20;;;;;;;7.13;2.22;;;;;;;;;;5078993;28;20024;-78
2023/10/14 10:57:46;;;;;;;8.73;1.60;;;;;;;;;;5086343;28;20040;-78
2023/10/14 11:00:17;;;;;;;7.88;1.52;;;;;;;;;;5090701;28;20035;-78
2023/10/14 11:02:43;;;;;;;7.75;1.85;;;;;;;;;;5092698;28;20042;-77
2023/10/14 11:05:09;;;;;;;8.55;1.35;;;;;;;;;;5096613;28;20051;-78
2023/10/14 11:07:34;;;;;;;7.90;2.15;;;;;;;;;;5081491;28;20032;-79
2023/10/14 11:10:00;;;;;;;9.88;1.70;;;;;;;;;;5094442;28;20028;-78
2023/10/14 11:12:25;;;;;;;8.45;1.50;;;;;;;;;;5068393;28;20043;-78
2023/10/14 11:14:50;;;;;;;6.47;1.60;;;;;;;;;;5094601;28;20024;-79
2023/10/14 11:17:16;;;;;;;10.70;1.45;;;;;;;;;;5098438;28;21047;-78
2023/10/14 11:19:43;;;;;;;7.15;1.38;;;;;;;;;;5101094;28;20063;-77
2023/10/14 11:22:11;;;;;;;6.22;1.52;;;;;;;;;;5088880;28;20089;-79
2023/10/14 11:24:37;;;;;;;7.68;1.30;;;;;;;;;;5075976;28;20081;-78
2023/10/14 11:27:03;;;;;;;4.80;1.50;;;;;;;;;;5093679;28;20032;-78
2023/10/14 11:29:28;;;;;;;7.78;1.20;;;;;;;;;;5075631;28;20024;-78
2023/10/14 11:31:54;;;;;;;5.07;1.17;;;;;;;;;;5081310;28;20480;-78
2023/10/14 11:34:20;;;;;;;6.07;1.40;;;;;;;;;;5101716;28;20111;-78
2023/10/14 11:36:48;;;;;;;6.85;1.25;;;;;;;;;;5106174;28;20468;-78
2023/10/14 11:39:15;;;;;;;4.40;1.30;;;;;;;;;;5091572;28;20381;-78
2023/10/14 11:41:41;;;;;;;6.18;1.30;;;;;;;;;;5074136;28;20072;-78
2023/10/14 11:44:06;;;;;;;6.25;1.42;;;;;;;;;;5102187;28;20036;-78
2023/10/14 11:46:34;;;;;;;5.05;1.23;;;;;;;;;;5079701;28;20028;-78
2023/10/14 11:48:59;;;;;;;6.45;1.58;;;;;;;;;;5104814;28;20034;-77
2023/10/14 11:51:29;;;;;;;6.35;1.27;;;;;;;;;;5094660;28;20415;-78
2023/10/14 11:53:56;;;;;;;6.82;1.67;;;;;;;;;;5072203;28;20024;-78
2023/10/14 11:56:21;;;;;;;4.75;0.98;;;;;;;;;;5075181;28;20537;-78
2023/10/14 11:58:49;;;;;;;5.50;1.10;;;;;;;;;;5096978;28;20051;-78
2023/10/14 12:01:14;;;;;;;6.72;1.25;;;;;;;;;;5098087;28;20028;-78
2023/10/14 12:03:40;;;;;;;5.03;0.90;;;;;;;;;;5103197;28;20028;-78
2023/10/14 12:06:07;;;;;;;7.22;1.25;;;;;;;;;;5081879;28;20024;-78
2023/10/14 12:08:38;;;;;;;6.93;1.33;;;;;;;;;;5074600;28;20081;-78
2023/10/14 12:11:04;;;;;;;5.80;1.33;;;;;;;;;;5096292;28;20020;-76
2023/10/14 12:13:29;;;;;;;7.85;1.83;;;;;;;;;;5096273;28;20032;-79
2023/10/14 12:15:54;;;;;;;6.47;1.40;;;;;;;;;;5103560;28;20027;-78
2023/10/14 12:18:20;;;;;;;6.05;1.27;;;;;;;;;;5071233;28;20062;-78
2023/10/14 12:20:48;;;;;;;4.30;1.02;;;;;;;;;;5073979;28;20032;-79
2023/10/14 12:23:14;;;;;;;8.15;1.80;;;;;;;;;;5091997;28;20032;-77
2023/10/14 12:25:39;;;;;;;4.55;1.08;;;;;;;;;;5091783;28;20078;-78
2023/10/14 12:28:05;;;;;;;8.43;1.40;;;;;;;;;;5101874;28;20035;-78
2023/10/14 12:31:03;;;;;;;3.72;0.80;;;;;;;;;;5099394;28;20085;-78
2023/10/14 12:33:22;;;;;;;7.28;1.67;;;;;;;;;;5093069;28;20040;-79
2023/10/14 12:35:51;;;;;;;8.52;1.52;;;;;;;;;;5089767;28;20032;-79
2023/10/14 12:38:20;;;;;;;6.00;1.77;;;;;;;;;;5074058;28;20404;-79
2023/10/14 12:40:48;;;;;;;4.78;0.90;;;;;;;;;;5077826;28;20048;-78
2023/10/14 12:43:15;;;;;;;9.93;1.27;;;;;;;;;;5079744;28;20054;-78
2023/10/14 12:45:41;;;;;;;6.03;1.10;;;;;;;;;;5103126;28;20024;-78
2023/10/14 12:48:09;;;;;;;6.28;1.10;;;;;;;;;;5092536;28;20032;-76
2023/10/14 12:50:40;;;;;;;6.40;1.33;;;;;;;;;;5088906;28;20052;-78
2023/10/14 12:53:06;;;;;;;3.97;0.93;;;;;;;;;;5093363;28;20035;-78
2023/10/14 12:55:31;;;;;;;4.88;1.33;;;;;;;;;;5077302;28;20024;-78
2023/10/14 12:58:00;;;;;;;4.32;1.00;;;;;;;;;;5102206;28;20107;-77
2023/10/14 13:00:25;;;;;;;8.23;1.00;;;;;;;;;;5100983;28;20104;-79
2023/10/14 13:02:53;;;;;;;8.40;1.87;;;;;;;;;;5087705;28;20052;-78
2023/10/14 13:05:20;;;;;;;7.63;1.50;;;;;;;;;;5093953;28;20262;-78
2023/10/14 13:07:46;;;;;;;8.00;1.73;;;;;;;;;;5076540;28;20031;-78
2023/10/14 13:10:18;;;;;;;5.90;0.95;;;;;;;;;;5099931;28;20534;-79
2023/10/14 13:12:44;;;;;;;5.85;1.13;;;;;;;;;;5098229;28;20047;-78
2023/10/14 13:15:09;;;;;;;10.35;1.60;;;;;;;;;;5097155;28;20024;-79
2023/10/14 13:17:35;;;;;;;4.18;0.98;;;;;;;;;;5090164;28;20052;-78
2023/10/14 13:20:00;;;;;;;11.93;1.42;;;;;;;;;;5075128;28;20475;-78
2023/10/14 13:22:25;;;;;;;6.35;2.10;;;;;;;;;;5093958;28;20069;-78
2023/10/14 13:24:51;;;;;;;4.40;0.97;;;;;;;;;;5099524;28;20028;-78
2023/10/14 13:27:16;;;;;;;5.90;1.40;;;;;;;;;;5085743;28;20281;-77
2023/10/14 13:29:41;;;;;;;7.38;1.10;;;;;;;;;;5088151;28;20347;-78
2023/10/14 13:32:06;;;;;;;5.50;1.10;;;;;;;;;;5090998;28;20027;-76
2023/10/14 13:34:32;;;;;;;6.30;1.27;;;;;;;;;;5062965;28;20638;-78
2023/10/14 13:36:57;;;;;;;4.75;1.20;;;;;;;;;;5079451;28;20032;-78
2023/10/14 13:39:23;;;;;;;8.75;1.58;;;;;;;;;;5095541;28;20035;-78
2023/10/14 13:41:48;;;;;;;5.40;1.40;;;;;;;;;;5102915;28;20043;-77
2023/10/14 13:44:17;;;;;;;6.80;1.35;;;;;;;;;;5090712;28;20039;-79
2023/10/14 13:46:45;;;;;;;7.50;1.27;;;;;;;;;;5114832;22;20044;-80
2023/10/14 13:49:10;;;;;;;6.10;1.40;;;;;;;;;;5097641;28;20032;-80
2023/10/14 13:51:35;;;;;;;4.93;1.20;;;;;;;;;;5097248;28;20024;-79
2023/10/14 13:54:00;;;;;;;5.60;1.50;;;;;;;;;;5100973;28;20031;-80
2023/10/14 13:56:26;;;;;;;6.60;1.60;;;;;;;;;;5098281;28;20646;-80
2023/10/14 13:58:52;;;;;;;5.72;1.10;;;;;;;;;;5085369;28;20274;-80
2023/10/14 14:01:17;;;;;;;8.35;1.15;;;;;;;;;;5089237;28;20035;-80
2023/10/14 14:03:43;;;;;;;6.75;1.00;;;;;;;;;;5091656;28;20032;-80
2023/10/14 14:06:09;;;;;;;8.55;1.50;;;;;;;;;;5094389;28;20028;-80
2023/10/14 14:08:34;;;;;;;4.47;1.17;;;;;;;;;;5077727;28;20099;-80
2023/10/14 14:11:03;;;;;;;4.65;1.10;;;;;;;;;;5095976;28;20028;-81
2023/10/14 14:13:29;;;;;;;5.88;0.95;;;;;;;;;;5094108;28;20038;-80
2023/10/14 14:15:55;;;;;;;5.60;1.20;;;;;;;;;;5052796;28;20029;-81
2023/10/14 14:18:20;;;;;;;7.28;1.50;;;;;;;;;;5096641;28;20028;-80
2023/10/14 14:20:47;;;;;;;5.63;1.52;;;;;;;;;;5097857;28;20051;-80
2023/10/14 14:23:13;;;;;;;9.02;1.20;;;;;;;;;;5102121;28;20104;-80
2023/10/14 14:25:38;;;;;;;3.15;0.73;;;;;;;;;;5092336;28;20036;-81
2023/10/14 14:28:05;;;;;;;4.80;0.90;;;;;;;;;;5094252;28;20082;-80
2023/10/14 14:30:30;;;;;;;4.93;1.00;;;;;;;;;;5095165;28;20646;-80
2023/10/14 14:32:56;;;;;;;5.78;1.35;;;;;;;;;;5079092;28;20035;-80
2023/10/14 14:35:26;;;;;;;5.45;1.55;;;;;;;;;;5081551;28;20023;-80
2023/10/14 14:37:51;;;;;;;7.88;1.40;;;;;;;;;;5099169;28;20028;-80
2023/10/14 14:40:23;;;;;;;5.00;0.90;;;;;;;;;;5096218;28;20032;-80
2023/10/14 14:42:48;;;;;;;5.43;1.02;;;;;;;;;;5093812;28;20035;-80
2023/10/14 14:45:14;;;;;;;7.22;1.40;;;;;;;;;;5097284;28;20028;-80
2023/10/14 14:47:40;;;;;;;4.68;1.02;;;;;;;;;;5096989;28;20150;-81
2023/10/14 14:50:13;;;;;;;4.35;0.90;;;;;;;;;;5103875;28;20127;-80
2023/10/14 14:52:38;;;;;;;8.18;1.40;;;;;;;;;;5096072;28;20024;-80
2023/10/14 14:55:04;;;;;;;4.57;0.75;;;;;;;;;;5097178;28;20032;-80
2023/10/14 14:57:30;;;;;;;7.20;1.30;;;;;;;;;;5081305;28;20036;-80
2023/10/14 14:59:56;;;;;;;6.43;1.00;;;;;;;;;;5070567;28;20038;-80
2023/10/14 15:02:21;;;;;;;6.25;0.95;;;;;;;;;;5101384;28;20020;-80
2023/10/14 15:04:48;;;;;;;4.55;0.90;;;;;;;;;;5103538;28;20032;-80
2023/10/14 15:07:13;;;;;;;5.45;0.90;;;;;;;;;;5081063;28;20024;-80
2023/10/14 15:09:38;;;;;;;5.65;1.10;;;;;;;;;;5096409;28;20047;-80
2023/10/14 15:12:05;;;;;;;5.67;1.03;;;;;;;;;;5101944;28;20024;-80
2023/10/14 15:14:30;;;;;;;5.47;0.95;;;;;;;;;;5100658;28;20339;-80
2023/10/14 15:16:56;;;;;;;4.85;1.02;;;;;;;;;;5102910;28;20479;-80
2023/10/14 15:19:22;;;;;;;5.97;1.13;;;;;;;;;;5105084;28;20036;-80
2023/10/14 15:21:48;;;;;;;5.75;1.15;;;;;;;;;;5094676;28;20285;-80